createdAt,value
2022-11-12T00:02:34.820Z,32.83
2022-11-12T00:05:20.979Z,28.93
2022-11-12T00:08:07.427Z,32.13
2022-11-12T00:10:53.682Z,28.27
2022-11-12T00:13:40.089Z,25.85
2022-11-12T00:16:26.470Z,27.98
2022-11-12T00:19:12.861Z,29.87
2022-11-12T00:21:59.219Z,30.08
2022-11-12T00:24:45.331Z,27.42
2022-11-12T00:27:33.540Z,25.48
2022-11-12T00:30:19.634Z,27.55
2022-11-12T00:33:06.910Z,24.70
2022-11-12T00:35:53.328Z,27.85
2022-11-12T00:38:39.754Z,23.40
2022-11-12T00:41:26.127Z,26.33
2022-11-12T00:44:12.436Z,24.73
2022-11-12T00:46:58.352Z,25.07
2022-11-12T00:49:44.348Z,22.83
2022-11-12T00:52:30.601Z,24.90
2022-11-12T00:55:16.646Z,22.95
2022-11-12T00:58:02.994Z,25.13
2022-11-12T01:00:49.306Z,26.10
2022-11-12T01:03:36.206Z,25.77
2022-11-12T01:06:23.848Z,22.15
2022-11-12T01:09:10.032Z,25.35
2022-11-12T01:11:56.186Z,22.42
2022-11-12T01:14:42.473Z,21.83
2022-11-12T01:17:29.080Z,23.80
2022-11-12T01:20:15.498Z,25.13
2022-11-12T01:23:01.935Z,19.95
2022-11-12T01:25:48.217Z,23.83
2022-11-12T01:28:34.739Z,21.97
2022-11-12T01:31:27.245Z,24.02
2022-11-12T01:34:13.376Z,20.23
2022-11-12T01:36:59.647Z,22.60
2022-11-12T01:39:45.950Z,22.88
2022-11-12T01:42:33.490Z,23.87
2022-11-12T01:45:20.328Z,20.55
2022-11-12T01:48:06.482Z,21.75
2022-11-12T01:50:54.090Z,24.88
2022-11-12T01:53:47.940Z,22.38
2022-11-12T01:56:34.569Z,25.13
2022-11-12T01:59:29.870Z,24.75
2022-11-12T02:02:16.172Z,27.80
2022-11-12T02:05:06.509Z,26.20
2022-11-12T02:07:53.759Z,27.50
2022-11-12T02:10:40.841Z,26.13
2022-11-12T02:13:45.687Z,29.60
2022-11-12T02:16:41.988Z,28.33
2022-11-12T02:19:28.179Z,30.75
2022-11-12T02:22:14.275Z,25.65
2022-11-12T02:25:00.728Z,25.43
2022-11-12T02:27:51.726Z,26.20
2022-11-12T02:30:48.043Z,27.80
2022-11-12T02:33:34.083Z,21.02
2022-11-12T02:36:20.559Z,20.58
2022-11-12T02:39:07.143Z,20.87
2022-11-12T02:41:53.414Z,21.95
2022-11-12T02:44:39.546Z,20.30
2022-11-12T02:47:25.835Z,24.77
2022-11-12T02:50:12.545Z,21.83
2022-11-12T02:52:58.565Z,20.87
2022-11-12T02:55:44.992Z,24.85
2022-11-12T02:58:31.081Z,22.63
2022-11-12T03:01:17.274Z,30.23
2022-11-12T03:04:03.691Z,30.90
2022-11-12T03:06:49.729Z,30.23
2022-11-12T03:09:35.715Z,29.98
2022-11-12T03:12:21.892Z,37.13
2022-11-12T03:15:08.278Z,29.48
2022-11-12T03:17:54.803Z,29.55
2022-11-12T03:20:41.003Z,31.13
2022-11-12T03:23:28.071Z,30.83
2022-11-12T03:26:14.590Z,34.70
2022-11-12T03:29:00.852Z,37.67
2022-11-12T03:31:46.965Z,57.63
2022-11-12T03:34:33.405Z,37.40
2022-11-12T03:37:19.408Z,40.80
2022-11-12T03:40:06.497Z,33.45
2022-11-12T03:42:53.761Z,40.28
2022-11-12T03:45:40.020Z,34.15
2022-11-12T03:48:26.504Z,48.63
2022-11-12T03:51:16.195Z,49.30
2022-11-12T03:54:02.481Z,43.67
2022-11-12T03:56:48.575Z,60.35
2022-11-12T03:59:34.875Z,63.88
2022-11-12T04:02:21.258Z,90.03
2022-11-12T04:05:27.589Z,41.97
2022-11-12T04:08:37.860Z,39.60
2022-11-12T04:11:24.294Z,50.15
2022-11-12T04:14:10.270Z,33.15
2022-11-12T04:17:15.445Z,39.73
2022-11-12T04:20:20.425Z,41.75
2022-11-12T04:23:06.631Z,34.40
2022-11-12T04:26:11.358Z,48.67
2022-11-12T04:29:16.365Z,47.03
2022-11-12T04:32:02.623Z,33.47
2022-11-12T04:34:48.947Z,39.35
2022-11-12T04:37:45.820Z,29.70
2022-11-12T04:40:51.143Z,34.53
2022-11-12T04:43:56.395Z,38.42
2022-11-12T04:46:42.822Z,31.60
2022-11-12T04:49:29.496Z,33.80
2022-11-12T04:52:16.214Z,28.85
2022-11-12T04:55:02.523Z,32.67
2022-11-12T04:57:48.731Z,30.05
2022-11-12T05:00:35.468Z,31.27
2022-11-12T05:03:21.622Z,77.28
2022-11-12T05:06:27.931Z,142.10
2022-11-12T05:09:14.158Z,98.20
2022-11-12T05:12:00.523Z,112.43
2022-11-12T05:14:46.766Z,96.90
2022-11-12T05:17:32.951Z,75.95
2022-11-12T05:20:19.504Z,60.50
2022-11-12T05:23:07.385Z,45.58
2022-11-12T05:25:54.198Z,37.20
2022-11-12T05:28:40.274Z,28.87
2022-11-12T05:31:26.265Z,37.17
2022-11-12T05:34:13.009Z,29.15
2022-11-12T05:36:59.966Z,31.05
2022-11-12T05:39:46.312Z,31.27
2022-11-12T05:42:32.494Z,29.97
2022-11-12T05:45:18.932Z,28.92
2022-11-12T05:48:05.355Z,29.75
2022-11-12T05:51:11.919Z,27.77
2022-11-12T05:54:00.184Z,29.00
2022-11-12T05:56:46.719Z,30.67
2022-11-12T05:59:32.798Z,28.40
2022-11-12T06:02:18.847Z,29.15
2022-11-12T06:05:05.374Z,28.73
2022-11-12T06:07:51.454Z,27.00
2022-11-12T06:10:37.727Z,24.40
2022-11-12T06:13:25.914Z,31.83
2022-11-12T06:16:12.702Z,29.88
2022-11-12T06:18:59.142Z,33.05
2022-11-12T06:21:45.491Z,29.30
2022-11-12T06:24:34.955Z,42.23
2022-11-12T06:27:21.733Z,34.75
2022-11-12T06:30:09.215Z,51.00
2022-11-12T06:32:55.623Z,32.17
2022-11-12T06:35:43.124Z,27.05
2022-11-12T06:38:36.774Z,33.30
2022-11-12T06:41:23.182Z,30.13
2022-11-12T06:44:09.467Z,28.10
2022-11-12T06:46:55.818Z,30.05
2022-11-12T06:49:41.827Z,34.22
2022-11-12T06:52:27.891Z,36.40
2022-11-12T06:55:13.968Z,30.63
2022-11-12T06:58:00.452Z,34.13
2022-11-12T07:00:46.813Z,50.53
2022-11-12T07:03:33.203Z,34.15
2022-11-12T07:06:20.658Z,37.03
2022-11-12T07:09:07.250Z,76.43
2022-11-12T07:11:53.568Z,63.05
2022-11-12T07:14:39.585Z,82.53
2022-11-12T07:17:25.978Z,131.25
2022-11-12T07:20:12.914Z,116.40
2022-11-12T07:23:02.431Z,127.03
2022-11-12T07:25:56.629Z,103.05
2022-11-12T07:28:43.604Z,87.55
2022-11-12T07:31:29.957Z,82.32
2022-11-12T07:34:15.934Z,74.27
2022-11-12T07:37:01.979Z,68.97
2022-11-12T07:39:48.048Z,52.33
2022-11-12T07:42:35.692Z,43.70
2022-11-12T07:45:22.053Z,44.03
2022-11-12T07:48:08.560Z,37.70
2022-11-12T07:51:01.846Z,40.05
2022-11-12T07:53:50.907Z,39.35
2022-11-12T07:56:39.850Z,35.22
2022-11-12T07:59:25.842Z,35.58
2022-11-12T08:02:12.102Z,35.57
2022-11-12T08:04:58.106Z,33.03
2022-11-12T08:07:44.323Z,36.20
2022-11-12T08:10:30.672Z,34.85
2022-11-12T08:13:16.735Z,35.22
2022-11-12T08:16:03.296Z,37.30
2022-11-12T08:18:50.053Z,38.70
2022-11-12T08:21:36.324Z,37.00
2022-11-12T08:24:22.494Z,34.30
2022-11-12T08:27:08.457Z,34.20
2022-11-12T08:29:54.779Z,36.40
2022-11-12T08:32:40.858Z,36.47
2022-11-12T08:35:28.778Z,33.40
2022-11-12T08:38:15.268Z,35.08
2022-11-12T08:41:07.526Z,41.60
2022-11-12T08:43:53.964Z,44.57
2022-11-12T08:46:39.952Z,41.28
2022-11-12T08:49:26.422Z,47.28
2022-11-12T08:52:12.507Z,39.95
2022-11-12T08:54:58.552Z,44.45
2022-11-12T08:57:44.918Z,46.97
2022-11-12T09:00:38.385Z,37.97
2022-11-12T09:03:26.336Z,42.08
2022-11-12T09:06:12.540Z,45.13
2022-11-12T09:08:58.792Z,36.85
2022-11-12T09:11:45.257Z,37.90
2022-11-12T09:14:31.375Z,39.70
2022-11-12T09:17:17.483Z,37.92
2022-11-12T09:20:03.734Z,39.70
2022-11-12T09:22:50.150Z,37.20
2022-11-12T09:25:36.814Z,35.60
2022-11-12T09:28:22.969Z,41.03
2022-11-12T09:31:09.454Z,39.05
2022-11-12T09:33:55.541Z,43.78
2022-11-12T09:36:41.713Z,36.65
2022-11-12T09:39:28.447Z,44.00
2022-11-12T09:42:19.349Z,32.88
2022-11-12T09:45:30.325Z,38.13
2022-11-12T09:48:42.464Z,35.15
2022-11-12T09:51:34.555Z,37.65
2022-11-12T09:54:31.556Z,30.40
2022-11-12T09:57:17.886Z,26.33
2022-11-12T10:00:16.687Z,26.30
2022-11-12T10:03:14.739Z,26.88
2022-11-12T10:06:19.322Z,25.88
2022-11-12T10:09:28.575Z,21.37
2022-11-12T10:12:44.179Z,21.58
2022-11-12T10:16:02.008Z,22.05
2022-11-12T10:19:14.178Z,24.23
2022-11-12T10:23:05.246Z,20.75
2022-11-12T10:25:58.071Z,19.77
2022-11-12T10:29:11.078Z,19.75
2022-11-12T10:31:57.238Z,19.73
2022-11-12T10:34:43.507Z,23.58
2022-11-12T10:37:55.198Z,20.10
2022-11-12T10:40:42.614Z,20.97
2022-11-12T10:43:29.054Z,17.90
2022-11-12T10:46:22.346Z,18.70
2022-11-12T10:49:14.715Z,21.35
2022-11-12T10:52:01.145Z,28.75
2022-11-12T10:54:52.359Z,19.37
2022-11-12T10:57:41.005Z,20.30
2022-11-12T11:00:27.252Z,17.77
2022-11-12T11:03:25.542Z,16.17
2022-11-12T11:06:14.736Z,17.23
2022-11-12T11:09:13.110Z,18.67
2022-11-12T11:11:59.951Z,16.10
2022-11-12T11:14:46.305Z,17.42
2022-11-12T11:17:32.758Z,16.27
2022-11-12T11:20:29.191Z,17.67
2022-11-12T11:23:25.665Z,19.13
2022-11-12T11:26:51.491Z,17.25
2022-11-12T11:29:50.508Z,15.90
2022-11-12T11:33:14.044Z,14.40
2022-11-12T11:36:07.390Z,15.68
2022-11-12T11:39:38.080Z,16.33
2022-11-12T11:42:56.648Z,16.17
2022-11-12T11:45:53.269Z,20.42
2022-11-12T11:49:10.888Z,18.30
2022-11-12T11:52:12.498Z,20.38
2022-11-12T11:55:28.442Z,16.83
2022-11-12T11:58:42.288Z,17.58
2022-11-12T12:02:15.330Z,19.27
2022-11-12T12:05:38.246Z,17.75
2022-11-12T12:08:51.752Z,15.90
2022-11-12T12:12:13.361Z,19.47
2022-11-12T12:15:28.231Z,16.95
2022-11-12T12:19:01.888Z,15.98
2022-11-12T12:21:51.621Z,14.60
2022-11-12T12:25:03.592Z,15.68
2022-11-12T12:28:17.247Z,11.87
2022-11-12T12:31:22.741Z,11.25
2022-11-12T12:34:24.337Z,11.68
2022-11-12T12:37:43.684Z,13.13
2022-11-12T12:40:37.376Z,10.90
2022-11-12T12:43:48.569Z,14.77
2022-11-12T12:46:59.411Z,11.88
2022-11-12T12:49:48.394Z,13.30
2022-11-12T12:53:15.742Z,14.73
2022-11-12T12:56:07.478Z,12.43
2022-11-12T12:58:55.107Z,13.47
2022-11-12T13:01:41.567Z,13.55
2022-11-12T13:04:54.194Z,14.25
2022-11-12T13:07:48.167Z,12.00
2022-11-12T13:10:41.645Z,14.05
2022-11-12T13:13:37.316Z,12.97
2022-11-12T13:17:04.100Z,16.70
2022-11-12T13:19:53.296Z,14.65
2022-11-12T13:22:39.453Z,17.08
2022-11-12T13:25:28.391Z,16.63
2022-11-12T13:28:14.917Z,18.27
2022-11-12T13:31:03.687Z,16.55
2022-11-12T13:33:50.187Z,14.27
2022-11-12T13:36:36.457Z,16.98
2022-11-12T13:39:22.971Z,13.60
2022-11-12T13:42:54.083Z,15.77
2022-11-12T13:46:00.368Z,14.88
2022-11-12T13:49:09.559Z,22.77
2022-11-12T13:51:56.684Z,24.35
2022-11-12T13:54:42.971Z,21.92
2022-11-12T13:57:32.167Z,26.60
2022-11-12T14:00:21.497Z,28.50
2022-11-12T14:03:08.673Z,28.83
2022-11-12T14:05:55.635Z,29.40
2022-11-12T14:09:12.459Z,29.42
2022-11-12T14:12:07.054Z,22.47
2022-11-12T14:15:18.087Z,21.20
2022-11-12T14:18:33.391Z,18.23
2022-11-12T14:21:20.457Z,21.10
2022-11-12T14:24:10.813Z,18.52
2022-11-12T14:26:57.014Z,22.10
2022-11-12T14:29:43.939Z,21.88
2022-11-12T14:32:37.138Z,33.92
2022-11-12T14:35:37.708Z,32.40
2022-11-12T14:38:39.753Z,28.55
2022-11-12T14:41:35.319Z,29.50
2022-11-12T14:44:28.550Z,26.73
2022-11-12T14:47:18.806Z,26.50
2022-11-12T14:50:05.985Z,24.00
2022-11-12T14:53:20.477Z,24.23
2022-11-12T14:56:23.771Z,26.30
2022-11-12T14:59:15.715Z,25.50
2022-11-12T15:02:34.259Z,24.67
2022-11-12T15:05:30.188Z,28.55
2022-11-12T15:08:30.879Z,27.08
2022-11-12T15:11:44.942Z,24.13
2022-11-12T15:14:31.763Z,23.15
2022-11-12T15:17:29.277Z,23.67
2022-11-12T15:20:18.210Z,27.95
2022-11-12T15:23:04.919Z,24.75
2022-11-12T15:26:02.132Z,23.97
2022-11-12T15:29:10.374Z,25.23
2022-11-12T15:32:23.874Z,27.05
2022-11-12T15:35:37.944Z,28.40
2022-11-12T15:38:35.872Z,24.25
2022-11-12T15:41:29.314Z,27.23
2022-11-12T15:44:15.452Z,25.25
2022-11-12T15:47:02.299Z,26.50
2022-11-12T15:49:50.793Z,24.05
2022-11-12T15:52:36.913Z,30.08
2022-11-12T15:55:23.343Z,29.10
2022-11-12T15:58:35.133Z,25.63
2022-11-12T16:01:21.872Z,25.08
2022-11-12T16:04:09.360Z,23.63
2022-11-12T16:06:55.564Z,26.70
2022-11-12T16:09:41.951Z,27.10
2022-11-12T16:12:28.209Z,25.45
2022-11-12T16:15:18.271Z,26.67
2022-11-12T16:18:04.848Z,24.88
2022-11-12T16:20:51.199Z,26.60
2022-11-12T16:23:37.430Z,23.43
2022-11-12T16:26:28.726Z,23.63
2022-11-12T16:29:16.450Z,23.98
2022-11-12T16:32:04.422Z,23.15
2022-11-12T16:34:50.658Z,22.55
2022-11-12T16:37:39.789Z,20.93
2022-11-12T16:40:29.645Z,24.08
2022-11-12T16:43:15.687Z,23.63
2022-11-12T16:46:02.042Z,23.90
2022-11-12T16:48:48.143Z,23.48
2022-11-12T16:51:34.376Z,26.90
2022-11-12T16:54:20.449Z,28.58
2022-11-12T16:57:06.596Z,23.73
2022-11-12T16:59:52.920Z,27.58
2022-11-12T17:02:43.806Z,27.05
2022-11-12T17:05:32.252Z,24.03
2022-11-12T17:08:18.458Z,27.27
2022-11-12T17:11:09.630Z,24.95
2022-11-12T17:13:55.549Z,30.63
2022-11-12T17:16:41.571Z,27.42
2022-11-12T17:19:27.682Z,24.20
2022-11-12T17:22:13.908Z,26.60
2022-11-12T17:25:00.382Z,24.15
2022-11-12T17:27:46.749Z,28.20
2022-11-12T17:30:32.700Z,25.75
2022-11-12T17:33:18.778Z,27.90
2022-11-12T17:36:07.013Z,30.00
2022-11-12T17:38:59.325Z,28.33
2022-11-12T17:41:45.718Z,26.85
2022-11-12T17:44:31.858Z,30.95
2022-11-12T17:47:17.819Z,28.87
2022-11-12T17:50:04.483Z,30.63
2022-11-12T17:52:50.935Z,35.38
2022-11-12T17:55:37.097Z,31.95
2022-11-12T17:58:23.161Z,31.48
2022-11-12T18:01:15.252Z,34.43
2022-11-12T18:04:01.944Z,33.13
2022-11-12T18:06:48.093Z,36.72
2022-11-12T18:09:34.071Z,40.85
2022-11-12T18:12:20.175Z,40.67
2022-11-12T18:15:07.246Z,39.43
2022-11-12T18:17:53.607Z,35.40
2022-11-12T18:20:42.348Z,37.33
2022-11-12T18:23:28.973Z,38.35
2022-11-12T18:26:18.151Z,37.17
2022-11-12T18:29:04.515Z,38.33
2022-11-12T18:31:50.846Z,41.45
2022-11-12T18:34:41.626Z,37.35
2022-11-12T18:37:27.769Z,39.58
2022-11-12T18:40:14.102Z,40.95
2022-11-12T18:43:00.453Z,40.67
2022-11-12T18:45:58.963Z,38.63
2022-11-12T18:48:44.971Z,35.55
2022-11-12T18:51:30.875Z,33.85
2022-11-12T18:54:16.963Z,39.60
2022-11-12T18:57:02.997Z,35.07
2022-11-12T18:59:51.920Z,35.35
2022-11-12T19:02:38.135Z,39.50
2022-11-12T19:05:24.227Z,37.72
2022-11-12T19:08:10.505Z,41.22
2022-11-12T19:11:01.902Z,39.77
2022-11-12T19:13:52.266Z,43.17
2022-11-12T19:16:44.688Z,44.88
2022-11-12T19:19:30.778Z,50.45
2022-11-12T19:22:16.781Z,45.67
2022-11-12T19:25:02.978Z,41.70
2022-11-12T19:27:49.239Z,45.92
2022-11-12T19:30:35.558Z,53.95
2022-11-12T19:33:21.755Z,50.58
2022-11-12T19:36:13.344Z,54.10
2022-11-12T19:39:02.467Z,56.13
2022-11-12T19:41:48.663Z,54.38
2022-11-12T19:44:35.238Z,55.97
2022-11-12T19:47:21.595Z,63.60
2022-11-12T19:50:08.247Z,65.15
2022-11-12T19:52:54.715Z,67.13
2022-11-12T19:55:41.443Z,64.57
2022-11-12T19:58:27.883Z,64.53
2022-11-12T20:01:17.576Z,69.78
2022-11-12T20:04:04.132Z,63.28
2022-11-12T20:06:50.402Z,63.37
2022-11-12T20:09:36.390Z,61.03
2022-11-12T20:12:24.269Z,63.40
2022-11-12T20:15:11.115Z,70.05
2022-11-12T20:17:57.228Z,71.60
2022-11-12T20:20:55.437Z,78.93
2022-11-12T20:23:43.032Z,71.25
2022-11-12T20:26:29.497Z,65.68
2022-11-12T20:29:15.675Z,69.68
2022-11-12T20:32:02.872Z,72.28
2022-11-12T20:34:49.220Z,67.87
2022-11-12T20:37:35.123Z,69.80
2022-11-12T20:40:21.419Z,71.88
2022-11-12T20:43:07.900Z,70.20
2022-11-12T20:45:54.366Z,68.68
2022-11-12T20:48:43.616Z,76.00
2022-11-12T20:51:30.176Z,74.18
2022-11-12T20:54:16.535Z,72.68
2022-11-12T20:57:03.178Z,71.38
2022-11-12T20:59:51.515Z,68.90
2022-11-12T21:02:37.794Z,70.57
2022-11-12T21:05:24.119Z,85.63
2022-11-12T21:08:10.164Z,79.85
2022-11-12T21:10:58.554Z,79.35
2022-11-12T21:13:44.984Z,77.88
2022-11-12T21:16:31.450Z,78.60
2022-11-12T21:19:17.555Z,81.40
2022-11-12T21:22:03.792Z,75.03
2022-11-12T21:24:49.992Z,76.63
2022-11-12T21:27:36.039Z,74.18
2022-11-12T21:30:22.071Z,78.57
2022-11-12T21:33:08.268Z,78.05
2022-11-12T21:35:54.366Z,71.63
2022-11-12T21:38:41.382Z,78.15
2022-11-12T21:41:29.722Z,78.55
2022-11-12T21:44:15.959Z,74.40
2022-11-12T21:47:02.659Z,77.80
2022-11-12T21:49:48.735Z,74.57
2022-11-12T21:52:35.074Z,75.78
2022-11-12T21:55:21.231Z,76.70
2022-11-12T21:58:07.668Z,74.23
2022-11-12T22:00:53.586Z,74.20
2022-11-12T22:03:40.138Z,67.93
2022-11-12T22:06:29.248Z,67.63
2022-11-12T22:09:16.099Z,67.60
2022-11-12T22:12:02.077Z,63.80
2022-11-12T22:14:48.550Z,62.65
2022-11-12T22:17:34.627Z,61.35
2022-11-12T22:20:21.075Z,61.05
2022-11-12T22:23:07.187Z,55.85
2022-11-12T22:25:57.580Z,55.23
2022-11-12T22:28:44.631Z,54.13
2022-11-12T22:31:33.442Z,56.25
2022-11-12T22:34:19.702Z,52.53
2022-11-12T22:37:05.681Z,55.90
2022-11-12T22:39:51.765Z,58.13
2022-11-12T22:42:37.902Z,57.58
2022-11-12T22:45:24.023Z,56.25
2022-11-12T22:48:10.570Z,59.72
2022-11-12T22:51:05.989Z,57.55
2022-11-12T22:54:05.032Z,53.10
2022-11-12T22:56:51.445Z,49.55
2022-11-12T22:59:37.567Z,56.55
2022-11-12T23:02:24.186Z,56.50
2022-11-12T23:05:10.581Z,56.72
2022-11-12T23:07:56.841Z,47.40
2022-11-12T23:10:45.835Z,49.60
2022-11-12T23:13:33.004Z,49.70
2022-11-12T23:16:25.931Z,51.92
2022-11-12T23:19:12.098Z,49.70
2022-11-12T23:21:58.669Z,49.67
2022-11-12T23:24:44.827Z,50.67
2022-11-12T23:27:31.034Z,51.28
2022-11-12T23:30:17.436Z,53.05
2022-11-12T23:33:04.399Z,53.25
2022-11-12T23:35:50.764Z,51.43
2022-11-12T23:38:36.961Z,51.55
2022-11-12T23:41:25.854Z,57.10
2022-11-12T23:44:12.190Z,51.53
2022-11-12T23:46:58.567Z,52.45
2022-11-12T23:49:44.680Z,52.47
2022-11-12T23:52:30.779Z,50.67
2022-11-12T23:55:16.945Z,52.42
2022-11-12T23:58:03.378Z,54.65
